aviador You're here:

KMYV Decoded Metar

MARYSVILLE in CA, USA
Report Time2018-01-21 17:53:00
UTC Time2018-01-21 18:38:09
Flight Rules vfr VFR
Wind150° at 09 kt
W.Decomp.*RWY 14: 9.0 kt HW 0.9 kt LCW
RWY 05: 0.9 kt HW 9.0 kt RCW
W.Rank150° ranks 1
Current wind is above 150° avg. (8.4)
Visibility9999 m
Phenomena:N/A
Clouds:Broken 110 Hf
Expected CloudBase > 1,600 ft AGL from Temp-Dew spread
Ceiling11,000 ft
Temp08°C (ISA -7)
Dew Point04°C (76% RH)
AAT3.4°C
QNH1029 hPa
Density Alt-1,184 ft
Elevation69 ft
Report Wrong Elevation
Raw Report
METAR KMYV 211753Z AUTO 15009KT 10SM BKN110 08/04 A3038 RMK AO2 SLP291
T00780039 10078 20000 53015=

Extra information for KMYV:More info

Metar Taf Metar & Taf Last 4 Metars F.Rules Stats Wind Profile Meteogram Temp Stats Airport Information Weather charts Add Link Nearby VenuesMetar ALERT Operation Metar Decoded Social comments

AIRNAV info for KMYV